sensor_id;sensor_type;location;lat;lon;timestamp;P1;durP1;ratioP1;P2;durP2;ratioP2
1785;SDS011;890;48.158;11.540;2023-07-16T00:01:02;7.57;;;6.93;;
1785;SDS011;890;48.158;11.540;2023-07-16T00:03:28;7.27;;;6.57;;
1785;SDS011;890;48.158;11.540;2023-07-16T00:05:53;7.20;;;6.60;;
1785;SDS011;890;48.158;11.540;2023-07-16T00:08:19;6.93;;;6.23;;
1785;SDS011;890;48.158;11.540;2023-07-16T00:10:44;7.30;;;6.60;;
1785;SDS011;890;48.158;11.540;2023-07-16T00:13:10;7.80;;;6.23;;
1785;SDS011;890;48.158;11.540;2023-07-16T00:15:36;7.80;;;6.13;;
1785;SDS011;890;48.158;11.540;2023-07-16T00:18:01;7.70;;;6.90;;
1785;SDS011;890;48.158;11.540;2023-07-16T00:20:27;8.10;;;6.40;;
1785;SDS011;890;48.158;11.540;2023-07-16T00:22:53;9.97;;;7.10;;
1785;SDS011;890;48.158;11.540;2023-07-16T00:25:19;7.60;;;6.43;;
1785;SDS011;890;48.158;11.540;2023-07-16T00:27:46;6.63;;;6.07;;
1785;SDS011;890;48.158;11.540;2023-07-16T00:30:11;8.23;;;6.37;;
1785;SDS011;890;48.158;11.540;2023-07-16T00:32:37;6.47;;;5.87;;
1785;SDS011;890;48.158;11.540;2023-07-16T00:35:03;7.67;;;6.83;;
1785;SDS011;890;48.158;11.540;2023-07-16T00:37:30;7.60;;;6.40;;
1785;SDS011;890;48.158;11.540;2023-07-16T00:39:56;8.20;;;6.23;;
1785;SDS011;890;48.158;11.540;2023-07-16T00:42:21;8.27;;;6.93;;
1785;SDS011;890;48.158;11.540;2023-07-16T00:44:47;6.80;;;6.20;;
1785;SDS011;890;48.158;11.540;2023-07-16T00:47:12;8.50;;;6.30;;
1785;SDS011;890;48.158;11.540;2023-07-16T00:49:38;8.73;;;6.60;;
1785;SDS011;890;48.158;11.540;2023-07-16T00:52:04;7.33;;;6.63;;
1785;SDS011;890;48.158;11.540;2023-07-16T00:54:33;8.67;;;7.00;;
1785;SDS011;890;48.158;11.540;2023-07-16T00:56:59;6.18;;;5.68;;
1785;SDS011;890;48.158;11.540;2023-07-16T00:59:24;6.53;;;5.80;;
1785;SDS011;890;48.158;11.540;2023-07-16T01:01:50;7.23;;;6.13;;
1785;SDS011;890;48.158;11.540;2023-07-16T01:04:16;8.43;;;6.53;;
1785;SDS011;890;48.158;11.540;2023-07-16T01:06:47;7.90;;;7.20;;
1785;SDS011;890;48.158;11.540;2023-07-16T01:09:17;7.73;;;6.90;;
1785;SDS011;890;48.158;11.540;2023-07-16T01:11:44;8.83;;;6.80;;
1785;SDS011;890;48.158;11.540;2023-07-16T01:14:12;8.33;;;7.07;;
1785;SDS011;890;48.158;11.540;2023-07-16T01:16:41;18.97;;;17.23;;
1785;SDS011;890;48.158;11.540;2023-07-16T01:19:07;7.00;;;6.30;;
1785;SDS011;890;48.158;11.540;2023-07-16T01:21:35;7.60;;;6.57;;
1785;SDS011;890;48.158;11.540;2023-07-16T01:27:04;7.80;;;7.10;;
1785;SDS011;890;48.158;11.540;2023-07-16T01:29:33;9.23;;;7.33;;
1785;SDS011;890;48.158;11.540;2023-07-16T01:32:02;9.53;;;7.07;;
1785;SDS011;890;48.158;11.540;2023-07-16T01:34:31;7.80;;;6.73;;
1785;SDS011;890;48.158;11.540;2023-07-16T01:36:59;6.87;;;6.17;;
1785;SDS011;890;48.158;11.540;2023-07-16T01:39:26;8.80;;;7.60;;
1785;SDS011;890;48.158;11.540;2023-07-16T01:41:52;10.20;;;6.67;;
1785;SDS011;890;48.158;11.540;2023-07-16T01:44:18;10.37;;;6.43;;
1785;SDS011;890;48.158;11.540;2023-07-16T01:46:43;8.93;;;6.87;;
1785;SDS011;890;48.158;11.540;2023-07-16T01:49:09;8.10;;;7.30;;
1785;SDS011;890;48.158;11.540;2023-07-16T01:51:34;8.80;;;6.53;;
1785;SDS011;890;48.158;11.540;2023-07-16T01:54:00;7.50;;;6.90;;
1785;SDS011;890;48.158;11.540;2023-07-16T01:56:26;7.30;;;6.60;;
1785;SDS011;890;48.158;11.540;2023-07-16T01:58:51;8.60;;;6.73;;
1785;SDS011;890;48.158;11.540;2023-07-16T02:01:17;8.00;;;7.20;;
1785;SDS011;890;48.158;11.540;2023-07-16T02:03:42;11.67;;;6.90;;
1785;SDS011;890;48.158;11.540;2023-07-16T02:06:08;13.20;;;7.00;;
1785;SDS011;890;48.158;11.540;2023-07-16T02:08:33;28.43;;;25.77;;
1785;SDS011;890;48.158;11.540;2023-07-16T02:10:59;13.97;;;12.27;;
1785;SDS011;890;48.158;11.540;2023-07-16T02:13:25;9.30;;;7.60;;
1785;SDS011;890;48.158;11.540;2023-07-16T02:15:52;9.40;;;6.60;;
1785;SDS011;890;48.158;11.540;2023-07-16T02:18:17;9.70;;;6.60;;
1785;SDS011;890;48.158;11.540;2023-07-16T02:20:43;9.50;;;7.20;;
1785;SDS011;890;48.158;11.540;2023-07-16T02:23:09;14.27;;;7.97;;
1785;SDS011;890;48.158;11.540;2023-07-16T02:25:35;32.20;;;28.83;;
1785;SDS011;890;48.158;11.540;2023-07-16T02:28:00;126.80;;;118.53;;
1785;SDS011;890;48.158;11.540;2023-07-16T02:30:26;48.63;;;45.33;;
1785;SDS011;890;48.158;11.540;2023-07-16T02:32:52;206.50;;;193.87;;
1785;SDS011;890;48.158;11.540;2023-07-16T02:35:18;170.37;;;161.17;;
1785;SDS011;890;48.158;11.540;2023-07-16T02:37:43;764.33;;;719.90;;
1785;SDS011;890;48.158;11.540;2023-07-16T02:40:09;991.33;;;931.17;;
1785;SDS011;890;48.158;11.540;2023-07-16T02:42:35;645.00;;;608.30;;
1785;SDS011;890;48.158;11.540;2023-07-16T02:45:00;1168.53;;;999.90;;
1785;SDS011;890;48.158;11.540;2023-07-16T02:47:26;1263.40;;;999.90;;
1785;SDS011;890;48.158;11.540;2023-07-16T02:49:51;1249.27;;;999.90;;
1785;SDS011;890;48.158;11.540;2023-07-16T02:52:17;1239.93;;;999.90;;
1785;SDS011;890;48.158;11.540;2023-07-16T02:54:43;1253.33;;;999.90;;
1785;SDS011;890;48.158;11.540;2023-07-16T02:57:08;1251.07;;;999.90;;
1785;SDS011;890;48.158;11.540;2023-07-16T02:59:34;1241.47;;;999.90;;
1785;SDS011;890;48.158;11.540;2023-07-16T03:01:59;1220.73;;;999.90;;
1785;SDS011;890;48.158;11.540;2023-07-16T03:04:25;1211.27;;;999.90;;
1785;SDS011;890;48.158;11.540;2023-07-16T03:06:50;1162.70;;;999.90;;
1785;SDS011;890;48.158;11.540;2023-07-16T03:09:16;1175.00;;;999.90;;
1785;SDS011;890;48.158;11.540;2023-07-16T03:11:42;924.53;;;869.57;;
1785;SDS011;890;48.158;11.540;2023-07-16T03:14:07;1148.20;;;999.90;;
1785;SDS011;890;48.158;11.540;2023-07-16T03:16:33;1209.87;;;999.90;;
1785;SDS011;890;48.158;11.540;2023-07-16T03:18:58;1189.70;;;999.90;;
1785;SDS011;890;48.158;11.540;2023-07-16T03:21:24;1150.67;;;999.90;;
1785;SDS011;890;48.158;11.540;2023-07-16T03:23:50;1130.23;;;999.90;;
1785;SDS011;890;48.158;11.540;2023-07-16T03:26:15;1127.33;;;999.90;;
1785;SDS011;890;48.158;11.540;2023-07-16T03:28:41;1126.00;;;999.90;;
1785;SDS011;890;48.158;11.540;2023-07-16T03:31:06;1126.83;;;999.90;;
1785;SDS011;890;48.158;11.540;2023-07-16T03:33:32;1118.23;;;999.90;;
1785;SDS011;890;48.158;11.540;2023-07-16T03:35:57;1107.83;;;999.90;;
1785;SDS011;890;48.158;11.540;2023-07-16T03:38:23;1096.93;;;999.90;;
1785;SDS011;890;48.158;11.540;2023-07-16T03:40:49;1097.33;;;999.90;;
1785;SDS011;890;48.158;11.540;2023-07-16T03:43:18;1104.17;;;999.90;;
1785;SDS011;890;48.158;11.540;2023-07-16T03:45:43;1131.83;;;999.90;;
1785;SDS011;890;48.158;11.540;2023-07-16T03:48:11;1107.20;;;999.90;;
1785;SDS011;890;48.158;11.540;2023-07-16T03:50:36;1146.63;;;999.90;;
1785;SDS011;890;48.158;11.540;2023-07-16T03:53:02;1154.30;;;999.90;;
1785;SDS011;890;48.158;11.540;2023-07-16T03:55:28;1123.73;;;999.90;;
1785;SDS011;890;48.158;11.540;2023-07-16T03:57:54;1138.43;;;999.90;;
1785;SDS011;890;48.158;11.540;2023-07-16T04:00:20;1137.37;;;999.90;;
1785;SDS011;890;48.158;11.540;2023-07-16T04:02:45;1131.90;;;999.90;;
1785;SDS011;890;48.158;11.540;2023-07-16T04:05:11;1132.80;;;999.90;;
1785;SDS011;890;48.158;11.540;2023-07-16T04:07:36;1146.37;;;999.90;;
1785;SDS011;890;48.158;11.540;2023-07-16T04:10:02;1147.80;;;999.90;;
1785;SDS011;890;48.158;11.540;2023-07-16T04:12:28;1110.63;;;999.90;;
1785;SDS011;890;48.158;11.540;2023-07-16T04:14:55;1143.37;;;999.90;;
1785;SDS011;890;48.158;11.540;2023-07-16T04:17:22;1114.57;;;999.90;;
1785;SDS011;890;48.158;11.540;2023-07-16T04:19:47;1103.00;;;999.90;;
1785;SDS011;890;48.158;11.540;2023-07-16T04:22:13;1083.47;;;999.90;;
1785;SDS011;890;48.158;11.540;2023-07-16T04:24:38;1121.73;;;999.90;;
1785;SDS011;890;48.158;11.540;2023-07-16T04:27:04;1140.23;;;999.90;;
1785;SDS011;890;48.158;11.540;2023-07-16T04:29:30;1120.63;;;999.90;;
1785;SDS011;890;48.158;11.540;2023-07-16T04:31:55;1122.77;;;999.90;;
1785;SDS011;890;48.158;11.540;2023-07-16T04:34:21;1103.90;;;999.90;;
1785;SDS011;890;48.158;11.540;2023-07-16T04:36:47;1075.53;;;999.73;;
1785;SDS011;890;48.158;11.540;2023-07-16T04:39:12;1086.63;;;999.90;;
1785;SDS011;890;48.158;11.540;2023-07-16T04:41:38;1055.80;;;992.57;;
1785;SDS011;890;48.158;11.540;2023-07-16T04:44:04;1087.30;;;999.90;;
1785;SDS011;890;48.158;11.540;2023-07-16T04:46:30;1092.50;;;999.90;;
1785;SDS011;890;48.158;11.540;2023-07-16T04:48:56;1105.50;;;999.90;;
1785;SDS011;890;48.158;11.540;2023-07-16T04:51:21;1106.10;;;999.90;;
1785;SDS011;890;48.158;11.540;2023-07-16T04:53:47;1132.83;;;999.90;;
1785;SDS011;890;48.158;11.540;2023-07-16T04:56:14;1087.53;;;999.90;;
1785;SDS011;890;48.158;11.540;2023-07-16T04:58:40;1110.17;;;999.90;;
1785;SDS011;890;48.158;11.540;2023-07-16T05:01:10;1088.40;;;999.90;;
1785;SDS011;890;48.158;11.540;2023-07-16T05:03:36;1090.87;;;999.90;;
1785;SDS011;890;48.158;11.540;2023-07-16T05:06:02;1060.77;;;995.70;;
1785;SDS011;890;48.158;11.540;2023-07-16T05:08:28;1089.43;;;999.90;;
1785;SDS011;890;48.158;11.540;2023-07-16T05:10:53;1101.90;;;999.90;;
1785;SDS011;890;48.158;11.540;2023-07-16T05:13:19;1058.23;;;990.00;;
1785;SDS011;890;48.158;11.540;2023-07-16T05:15:45;1051.23;;;986.03;;
1785;SDS011;890;48.158;11.540;2023-07-16T05:18:10;1220.10;;;999.90;;
1785;SDS011;890;48.158;11.540;2023-07-16T05:20:36;1221.27;;;999.90;;
1785;SDS011;890;48.158;11.540;2023-07-16T05:23:01;1230.93;;;999.90;;
1785;SDS011;890;48.158;11.540;2023-07-16T05:25:27;1221.07;;;999.90;;
1785;SDS011;890;48.158;11.540;2023-07-16T05:27:53;1188.73;;;999.90;;
1785;SDS011;890;48.158;11.540;2023-07-16T05:30:18;887.40;;;833.30;;
1785;SDS011;890;48.158;11.540;2023-07-16T05:32:44;851.60;;;803.30;;
1785;SDS011;890;48.158;11.540;2023-07-16T05:35:09;1014.57;;;952.57;;
1785;SDS011;890;48.158;11.540;2023-07-16T05:37:35;599.03;;;565.23;;
1785;SDS011;890;48.158;11.540;2023-07-16T05:40:01;1040.07;;;974.00;;
1785;SDS011;890;48.158;11.540;2023-07-16T05:42:28;1265.60;;;999.90;;
1785;SDS011;890;48.158;11.540;2023-07-16T05:44:53;1258.70;;;999.90;;
1785;SDS011;890;48.158;11.540;2023-07-16T05:47:19;1249.40;;;999.90;;
1785;SDS011;890;48.158;11.540;2023-07-16T05:49:45;1259.73;;;999.90;;
1785;SDS011;890;48.158;11.540;2023-07-16T05:52:10;1270.63;;;999.90;;
1785;SDS011;890;48.158;11.540;2023-07-16T05:54:36;776.27;;;731.70;;
1785;SDS011;890;48.158;11.540;2023-07-16T05:57:01;1139.10;;;999.90;;
1785;SDS011;890;48.158;11.540;2023-07-16T05:59:27;790.63;;;745.57;;
1785;SDS011;890;48.158;11.540;2023-07-16T06:01:53;758.43;;;715.00;;
1785;SDS011;890;48.158;11.540;2023-07-16T06:04:18;1209.37;;;999.90;;
1785;SDS011;890;48.158;11.540;2023-07-16T06:06:44;1204.07;;;999.90;;
1785;SDS011;890;48.158;11.540;2023-07-16T06:09:09;1266.90;;;999.90;;
1785;SDS011;890;48.158;11.540;2023-07-16T06:11:35;951.43;;;893.03;;
1785;SDS011;890;48.158;11.540;2023-07-16T06:14:00;888.43;;;836.23;;
1785;SDS011;890;48.158;11.540;2023-07-16T06:16:26;1200.17;;;999.90;;
1785;SDS011;890;48.158;11.540;2023-07-16T06:18:52;585.07;;;550.67;;
1785;SDS011;890;48.158;11.540;2023-07-16T06:21:17;948.47;;;890.23;;
1785;SDS011;890;48.158;11.540;2023-07-16T06:23:43;1035.80;;;969.03;;
1785;SDS011;890;48.158;11.540;2023-07-16T06:26:08;414.07;;;387.80;;
1785;SDS011;890;48.158;11.540;2023-07-16T06:28:34;1224.70;;;999.90;;
1785;SDS011;890;48.158;11.540;2023-07-16T06:31:00;1287.83;;;999.90;;
1785;SDS011;890;48.158;11.540;2023-07-16T06:33:25;1286.30;;;999.90;;
1785;SDS011;890;48.158;11.540;2023-07-16T06:35:52;731.47;;;687.30;;
1785;SDS011;890;48.158;11.540;2023-07-16T06:38:18;1116.00;;;999.90;;
1785;SDS011;890;48.158;11.540;2023-07-16T06:40:47;1242.70;;;999.90;;
1785;SDS011;890;48.158;11.540;2023-07-16T06:43:14;1277.80;;;999.90;;
1785;SDS011;890;48.158;11.540;2023-07-16T06:45:40;1271.13;;;999.90;;
1785;SDS011;890;48.158;11.540;2023-07-16T06:48:05;1247.17;;;999.90;;
1785;SDS011;890;48.158;11.540;2023-07-16T06:50:31;1261.53;;;999.90;;
1785;SDS011;890;48.158;11.540;2023-07-16T06:52:56;1264.53;;;999.90;;
1785;SDS011;890;48.158;11.540;2023-07-16T06:55:22;1288.50;;;999.90;;
1785;SDS011;890;48.158;11.540;2023-07-16T06:57:47;1260.60;;;999.90;;
1785;SDS011;890;48.158;11.540;2023-07-16T07:00:13;1270.97;;;999.90;;
1785;SDS011;890;48.158;11.540;2023-07-16T07:02:39;1289.63;;;999.90;;
1785;SDS011;890;48.158;11.540;2023-07-16T07:05:05;1271.90;;;999.90;;
1785;SDS011;890;48.158;11.540;2023-07-16T07:07:30;1293.67;;;999.90;;
1785;SDS011;890;48.158;11.540;2023-07-16T07:09:56;1202.03;;;999.90;;
1785;SDS011;890;48.158;11.540;2023-07-16T07:12:22;1150.97;;;999.90;;
1785;SDS011;890;48.158;11.540;2023-07-16T07:14:47;1275.97;;;999.90;;
1785;SDS011;890;48.158;11.540;2023-07-16T07:17:13;1259.93;;;999.90;;
1785;SDS011;890;48.158;11.540;2023-07-16T07:19:39;1255.73;;;999.90;;
1785;SDS011;890;48.158;11.540;2023-07-16T07:22:05;1276.53;;;999.90;;
1785;SDS011;890;48.158;11.540;2023-07-16T07:24:31;1273.07;;;999.90;;
1785;SDS011;890;48.158;11.540;2023-07-16T07:26:56;1208.13;;;999.90;;
1785;SDS011;890;48.158;11.540;2023-07-16T07:29:22;1216.67;;;999.90;;
1785;SDS011;890;48.158;11.540;2023-07-16T07:31:48;1231.27;;;999.90;;
1785;SDS011;890;48.158;11.540;2023-07-16T07:34:13;1244.97;;;999.90;;
1785;SDS011;890;48.158;11.540;2023-07-16T07:36:39;1232.17;;;999.90;;
1785;SDS011;890;48.158;11.540;2023-07-16T07:39:04;1238.83;;;999.90;;
1785;SDS011;890;48.158;11.540;2023-07-16T07:41:31;1257.47;;;999.90;;
1785;SDS011;890;48.158;11.540;2023-07-16T07:43:56;1295.27;;;999.90;;
1785;SDS011;890;48.158;11.540;2023-07-16T07:46:22;1259.77;;;999.90;;
1785;SDS011;890;48.158;11.540;2023-07-16T07:48:47;1230.90;;;999.90;;
1785;SDS011;890;48.158;11.540;2023-07-16T07:51:13;1239.80;;;999.90;;
1785;SDS011;890;48.158;11.540;2023-07-16T07:53:39;1236.60;;;999.90;;
1785;SDS011;890;48.158;11.540;2023-07-16T07:56:04;1224.00;;;999.90;;
1785;SDS011;890;48.158;11.540;2023-07-16T07:58:30;1247.17;;;999.90;;
1785;SDS011;890;48.158;11.540;2023-07-16T08:00:55;1246.70;;;999.90;;
1785;SDS011;890;48.158;11.540;2023-07-16T08:03:21;1265.73;;;999.90;;
1785;SDS011;890;48.158;11.540;2023-07-16T08:05:50;1290.00;;;999.90;;
1785;SDS011;890;48.158;11.540;2023-07-16T08:08:15;1281.40;;;999.90;;
1785;SDS011;890;48.158;11.540;2023-07-16T08:10:42;1256.80;;;999.90;;
1785;SDS011;890;48.158;11.540;2023-07-16T08:13:07;1203.93;;;999.90;;
1785;SDS011;890;48.158;11.540;2023-07-16T08:15:33;1266.90;;;999.90;;
1785;SDS011;890;48.158;11.540;2023-07-16T08:17:59;1053.00;;;985.67;;
1785;SDS011;890;48.158;11.540;2023-07-16T08:20:25;1223.80;;;999.90;;
1785;SDS011;890;48.158;11.540;2023-07-16T08:22:51;1198.87;;;999.90;;
1785;SDS011;890;48.158;11.540;2023-07-16T08:25:19;1282.30;;;999.90;;
1785;SDS011;890;48.158;11.540;2023-07-16T08:27:45;1241.80;;;999.90;;
1785;SDS011;890;48.158;11.540;2023-07-16T08:30:11;1268.47;;;999.90;;
1785;SDS011;890;48.158;11.540;2023-07-16T08:32:36;1236.17;;;999.90;;
1785;SDS011;890;48.158;11.540;2023-07-16T08:35:02;1229.63;;;999.90;;
1785;SDS011;890;48.158;11.540;2023-07-16T08:37:28;1264.00;;;999.90;;
1785;SDS011;890;48.158;11.540;2023-07-16T08:39:54;1260.23;;;999.90;;
1785;SDS011;890;48.158;11.540;2023-07-16T08:42:19;1238.60;;;999.90;;
1785;SDS011;890;48.158;11.540;2023-07-16T08:44:47;1247.40;;;999.90;;
1785;SDS011;890;48.158;11.540;2023-07-16T08:47:14;1231.87;;;999.90;;
1785;SDS011;890;48.158;11.540;2023-07-16T08:49:40;1253.57;;;999.90;;
1785;SDS011;890;48.158;11.540;2023-07-16T08:52:06;1269.20;;;999.90;;
1785;SDS011;890;48.158;11.540;2023-07-16T08:54:34;1261.30;;;999.90;;
1785;SDS011;890;48.158;11.540;2023-07-16T08:57:00;1244.67;;;999.90;;
1785;SDS011;890;48.158;11.540;2023-07-16T08:59:26;1259.03;;;999.90;;
1785;SDS011;890;48.158;11.540;2023-07-16T09:01:52;1256.20;;;999.90;;
1785;SDS011;890;48.158;11.540;2023-07-16T09:04:18;1258.33;;;999.90;;
1785;SDS011;890;48.158;11.540;2023-07-16T09:06:44;1289.40;;;999.90;;
1785;SDS011;890;48.158;11.540;2023-07-16T09:09:30;1272.70;;;999.90;;
1785;SDS011;890;48.158;11.540;2023-07-16T09:11:55;1254.87;;;999.90;;
1785;SDS011;890;48.158;11.540;2023-07-16T09:14:21;1263.20;;;999.90;;
1785;SDS011;890;48.158;11.540;2023-07-16T09:16:50;1277.27;;;999.90;;
1785;SDS011;890;48.158;11.540;2023-07-16T09:19:16;1275.67;;;999.90;;
1785;SDS011;890;48.158;11.540;2023-07-16T09:21:52;1275.23;;;999.90;;
1785;SDS011;890;48.158;11.540;2023-07-16T09:24:18;1279.47;;;999.90;;
1785;SDS011;890;48.158;11.540;2023-07-16T09:26:50;1312.53;;;999.90;;
1785;SDS011;890;48.158;11.540;2023-07-16T09:29:17;1297.17;;;999.90;;
1785;SDS011;890;48.158;11.540;2023-07-16T09:32:01;1295.80;;;999.90;;
1785;SDS011;890;48.158;11.540;2023-07-16T09:34:28;1291.00;;;999.90;;
1785;SDS011;890;48.158;11.540;2023-07-16T09:36:54;1282.67;;;999.90;;
1785;SDS011;890;48.158;11.540;2023-07-16T09:39:21;1275.00;;;999.90;;
1785;SDS011;890;48.158;11.540;2023-07-16T09:41:48;1285.83;;;999.90;;
1785;SDS011;890;48.158;11.540;2023-07-16T09:44:15;1286.67;;;999.90;;
1785;SDS011;890;48.158;11.540;2023-07-16T09:46:41;1287.07;;;999.90;;
1785;SDS011;890;48.158;11.540;2023-07-16T09:49:08;1301.20;;;999.90;;
1785;SDS011;890;48.158;11.540;2023-07-16T09:51:38;1282.43;;;999.90;;
1785;SDS011;890;48.158;11.540;2023-07-16T09:54:04;1270.93;;;999.90;;
1785;SDS011;890;48.158;11.540;2023-07-16T09:56:37;1268.53;;;999.90;;
1785;SDS011;890;48.158;11.540;2023-07-16T09:59:05;1277.87;;;999.90;;
1785;SDS011;890;48.158;11.540;2023-07-16T10:01:36;1297.47;;;999.90;;
1785;SDS011;890;48.158;11.540;2023-07-16T10:04:13;1288.73;;;999.90;;
1785;SDS011;890;48.158;11.540;2023-07-16T10:06:57;1306.37;;;999.90;;
1785;SDS011;890;48.158;11.540;2023-07-16T10:09:37;1312.20;;;999.90;;
1785;SDS011;890;48.158;11.540;2023-07-16T10:14:39;1325.00;;;999.90;;
1785;SDS011;890;48.158;11.540;2023-07-16T10:17:11;140.20;;;130.73;;
1785;SDS011;890;48.158;11.540;2023-07-16T10:22:32;2.20;;;1.93;;
1785;SDS011;890;48.158;11.540;2023-07-16T10:27:47;1341.60;;;999.90;;
1785;SDS011;890;48.158;11.540;2023-07-16T10:30:15;1329.07;;;999.90;;
1785;SDS011;890;48.158;11.540;2023-07-16T10:32:41;1328.10;;;999.90;;
1785;SDS011;890;48.158;11.540;2023-07-16T10:35:07;1296.20;;;999.90;;
1785;SDS011;890;48.158;11.540;2023-07-16T10:37:34;1281.33;;;999.90;;
1785;SDS011;890;48.158;11.540;2023-07-16T10:40:00;1375.13;;;999.90;;
1785;SDS011;890;48.158;11.540;2023-07-16T10:42:28;1384.77;;;999.90;;
1785;SDS011;890;48.158;11.540;2023-07-16T10:44:55;1344.33;;;999.90;;
1785;SDS011;890;48.158;11.540;2023-07-16T10:47:24;1350.67;;;999.90;;
1785;SDS011;890;48.158;11.540;2023-07-16T10:49:55;1350.43;;;999.90;;
1785;SDS011;890;48.158;11.540;2023-07-16T10:52:21;1363.10;;;999.90;;
1785;SDS011;890;48.158;11.540;2023-07-16T10:54:48;1356.23;;;999.90;;
1785;SDS011;890;48.158;11.540;2023-07-16T10:57:20;1198.73;;;999.90;;
1785;SDS011;890;48.158;11.540;2023-07-16T10:59:47;1228.10;;;999.90;;
1785;SDS011;890;48.158;11.540;2023-07-16T11:02:15;1202.00;;;999.90;;
1785;SDS011;890;48.158;11.540;2023-07-16T11:04:42;1185.10;;;999.90;;
1785;SDS011;890;48.158;11.540;2023-07-16T11:07:09;1171.60;;;999.90;;
1785;SDS011;890;48.158;11.540;2023-07-16T11:09:42;1253.53;;;999.90;;
1785;SDS011;890;48.158;11.540;2023-07-16T11:12:11;1187.13;;;999.90;;
1785;SDS011;890;48.158;11.540;2023-07-16T11:14:39;1200.23;;;999.90;;
1785;SDS011;890;48.158;11.540;2023-07-16T11:17:13;1187.47;;;999.90;;
1785;SDS011;890;48.158;11.540;2023-07-16T11:19:39;980.60;;;921.47;;
1785;SDS011;890;48.158;11.540;2023-07-16T11:22:07;1240.43;;;999.90;;
1785;SDS011;890;48.158;11.540;2023-07-16T11:24:41;1216.13;;;999.90;;
1785;SDS011;890;48.158;11.540;2023-07-16T11:29:53;1221.40;;;999.90;;
1785;SDS011;890;48.158;11.540;2023-07-16T11:34:54;1192.57;;;999.90;;
1785;SDS011;890;48.158;11.540;2023-07-16T11:37:20;1197.93;;;999.90;;
1785;SDS011;890;48.158;11.540;2023-07-16T11:39:46;1251.60;;;999.90;;
1785;SDS011;890;48.158;11.540;2023-07-16T11:42:13;1299.03;;;999.90;;
1785;SDS011;890;48.158;11.540;2023-07-16T11:44:39;1374.57;;;999.90;;
1785;SDS011;890;48.158;11.540;2023-07-16T11:47:05;1386.83;;;999.90;;
1785;SDS011;890;48.158;11.540;2023-07-16T11:49:31;1332.87;;;999.90;;
1785;SDS011;890;48.158;11.540;2023-07-16T11:51:57;1351.27;;;999.90;;
1785;SDS011;890;48.158;11.540;2023-07-16T11:54:23;1346.07;;;999.90;;
1785;SDS011;890;48.158;11.540;2023-07-16T11:56:49;1332.77;;;999.90;;
1785;SDS011;890;48.158;11.540;2023-07-16T11:59:15;1333.70;;;999.90;;
1785;SDS011;890;48.158;11.540;2023-07-16T12:01:45;1342.43;;;999.90;;
1785;SDS011;890;48.158;11.540;2023-07-16T12:04:14;1327.10;;;999.90;;
1785;SDS011;890;48.158;11.540;2023-07-16T12:06:41;1314.47;;;999.90;;
1785;SDS011;890;48.158;11.540;2023-07-16T12:09:07;1333.67;;;999.90;;
1785;SDS011;890;48.158;11.540;2023-07-16T12:11:32;1319.10;;;999.90;;
1785;SDS011;890;48.158;11.540;2023-07-16T12:13:58;1352.63;;;999.90;;
1785;SDS011;890;48.158;11.540;2023-07-16T12:16:24;1319.47;;;999.90;;
1785;SDS011;890;48.158;11.540;2023-07-16T12:18:49;1331.00;;;999.90;;
1785;SDS011;890;48.158;11.540;2023-07-16T12:21:15;1325.10;;;999.90;;
1785;SDS011;890;48.158;11.540;2023-07-16T12:23:40;1327.60;;;999.90;;
1785;SDS011;890;48.158;11.540;2023-07-16T12:26:06;1333.00;;;999.90;;
1785;SDS011;890;48.158;11.540;2023-07-16T12:28:33;1321.80;;;999.90;;
1785;SDS011;890;48.158;11.540;2023-07-16T12:30:59;1318.47;;;999.90;;
1785;SDS011;890;48.158;11.540;2023-07-16T12:33:24;1298.87;;;999.90;;
1785;SDS011;890;48.158;11.540;2023-07-16T12:35:50;1321.93;;;999.90;;
1785;SDS011;890;48.158;11.540;2023-07-16T12:38:16;1093.63;;;999.90;;
1785;SDS011;890;48.158;11.540;2023-07-16T12:40:41;969.97;;;909.10;;
1785;SDS011;890;48.158;11.540;2023-07-16T12:43:07;1290.43;;;999.90;;
1785;SDS011;890;48.158;11.540;2023-07-16T12:45:32;1349.27;;;999.90;;
1785;SDS011;890;48.158;11.540;2023-07-16T12:47:58;1339.63;;;999.90;;
1785;SDS011;890;48.158;11.540;2023-07-16T12:50:24;1238.50;;;999.90;;
1785;SDS011;890;48.158;11.540;2023-07-16T12:52:51;1324.67;;;999.90;;
1785;SDS011;890;48.158;11.540;2023-07-16T12:55:17;1213.70;;;999.90;;
1785;SDS011;890;48.158;11.540;2023-07-16T12:57:44;1157.20;;;999.90;;
1785;SDS011;890;48.158;11.540;2023-07-16T13:00:09;1245.97;;;999.90;;
1785;SDS011;890;48.158;11.540;2023-07-16T13:02:35;205.10;;;191.87;;
1785;SDS011;890;48.158;11.540;2023-07-16T13:05:02;3.70;;;2.87;;
1785;SDS011;890;48.158;11.540;2023-07-16T13:07:28;3.27;;;3.00;;
1785;SDS011;890;48.158;11.540;2023-07-16T13:09:54;2.73;;;2.53;;
1785;SDS011;890;48.158;11.540;2023-07-16T13:12:19;4.53;;;3.50;;
1785;SDS011;890;48.158;11.540;2023-07-16T13:14:45;5.20;;;3.90;;
1785;SDS011;890;48.158;11.540;2023-07-16T13:17:10;3.17;;;2.90;;
1785;SDS011;890;48.158;11.540;2023-07-16T13:19:36;4.97;;;4.40;;
1785;SDS011;890;48.158;11.540;2023-07-16T13:22:03;2.83;;;2.63;;
1785;SDS011;890;48.158;11.540;2023-07-16T13:24:28;3.77;;;3.47;;
1785;SDS011;890;48.158;11.540;2023-07-16T13:26:54;3.20;;;2.70;;
1785;SDS011;890;48.158;11.540;2023-07-16T13:29:20;3.30;;;3.00;;
1785;SDS011;890;48.158;11.540;2023-07-16T13:31:45;3.80;;;3.40;;
1785;SDS011;890;48.158;11.540;2023-07-16T13:34:11;3.77;;;3.47;;
1785;SDS011;890;48.158;11.540;2023-07-16T13:36:36;3.40;;;3.10;;
1785;SDS011;890;48.158;11.540;2023-07-16T13:39:02;3.03;;;2.73;;
1785;SDS011;890;48.158;11.540;2023-07-16T13:41:29;3.70;;;3.30;;
1785;SDS011;890;48.158;11.540;2023-07-16T13:43:55;3.30;;;3.03;;
1785;SDS011;890;48.158;11.540;2023-07-16T13:46:21;3.23;;;2.60;;
1785;SDS011;890;48.158;11.540;2023-07-16T13:48:46;3.30;;;3.00;;
1785;SDS011;890;48.158;11.540;2023-07-16T13:51:12;3.23;;;2.93;;
1785;SDS011;890;48.158;11.540;2023-07-16T13:53:38;3.00;;;2.80;;
1785;SDS011;890;48.158;11.540;2023-07-16T13:56:04;2.70;;;2.50;;
1785;SDS011;890;48.158;11.540;2023-07-16T13:58:29;3.97;;;2.93;;
1785;SDS011;890;48.158;11.540;2023-07-16T14:00:55;3.10;;;2.80;;
1785;SDS011;890;48.158;11.540;2023-07-16T14:03:20;2.90;;;2.70;;
1785;SDS011;890;48.158;11.540;2023-07-16T14:05:47;3.13;;;2.87;;
1785;SDS011;890;48.158;11.540;2023-07-16T14:08:12;3.87;;;3.53;;
1785;SDS011;890;48.158;11.540;2023-07-16T14:10:38;3.53;;;3.23;;
1785;SDS011;890;48.158;11.540;2023-07-16T14:13:04;3.53;;;3.23;;
1785;SDS011;890;48.158;11.540;2023-07-16T14:15:29;3.70;;;3.40;;
1785;SDS011;890;48.158;11.540;2023-07-16T14:17:55;4.77;;;3.70;;
1785;SDS011;890;48.158;11.540;2023-07-16T14:20:20;3.40;;;3.10;;
1785;SDS011;890;48.158;11.540;2023-07-16T14:22:46;3.67;;;3.20;;
1785;SDS011;890;48.158;11.540;2023-07-16T14:25:12;3.90;;;3.30;;
1785;SDS011;890;48.158;11.540;2023-07-16T14:27:37;3.33;;;3.03;;
1785;SDS011;890;48.158;11.540;2023-07-16T14:30:03;3.33;;;3.03;;
1785;SDS011;890;48.158;11.540;2023-07-16T14:32:29;3.70;;;3.40;;
1785;SDS011;890;48.158;11.540;2023-07-16T14:34:56;3.73;;;3.27;;
1785;SDS011;890;48.158;11.540;2023-07-16T14:37:22;3.70;;;3.40;;
1785;SDS011;890;48.158;11.540;2023-07-16T14:39:48;3.20;;;2.90;;